Baltic Frost — 9HA2868 — position and weather

sailwx.info

Track history (hours):
 
Tides and Currents Weather Stations Pressure Air Temp Water Temp Dewpoint Dewpoint Depression Visibility Wind Speed Wind Dir Waves Ship Positions

Baltic Frost

Last reported at 2015-Aug-29 22:20 UTC. Time now 2015-Aug-29 23:33 UTC.
Position N 47°18' W 002°06'.

Length 182 m; draft 7.2 m.

Type: Ship. MMSI: 256495000.

Date/timePositionNaut miles runAvg speedWind from/ knotsBaromVisibWave heightAir tempDewpointWater temp
2015-Aug-29 22:20N 47°18' W 002°06'0 0.0
2015-Aug-29 21:16N 47°18' W 002°06'0 0.0
2015-Aug-29 20:22N 47°18' W 002°06'0 0.0
2015-Aug-29 11:24N 47°18' W 002°06'0 0.0
2015-Aug-29 10:12N 47°18' W 002°06'0 0.0
2015-Aug-29 09:29N 47°18' W 002°06'0 0.0
2015-Aug-29 08:32N 47°18' W 002°06'0 0.0
2015-Aug-29 07:28N 47°18' W 002°06'0 0.0
2015-Aug-29 06:25N 47°18' W 002°06'0 0.0
2015-Aug-29 05:21N 47°18' W 002°06'0 0.0
2015-Aug-29 04:15N 47°18' W 002°06'0 0.0
2015-Aug-29 03:33N 47°18' W 002°06'0 0.0
2015-Aug-29 02:26N 47°18' W 002°06'0 0.0
2015-Aug-29 00:31N 47°18' W 002°06'0 0.0
2015-Aug-28 23:22N 47°18' W 002°06'0 0.0
2015-Aug-28 22:27N 47°18' W 002°06'0 0.0
2015-Aug-28 21:33N 47°18' W 002°06'0 0.0
2015-Aug-28 20:18N 47°18' W 002°06'0 0.0
2015-Aug-28 19:32N 47°18' W 002°06'0 0.0
2015-Aug-28 18:32N 47°18' W 002°06'0 0.0
2015-Aug-28 12:29N 47°18' W 002°06'0 0.0
2015-Aug-28 10:13N 47°18' W 002°06'0 0.0
2015-Aug-28 09:28N 47°18' W 002°06'0 0.0
2015-Aug-28 08:33N 47°18' W 002°06'0 0.0
2015-Aug-28 07:33N 47°18' W 002°06'0 0.0
2015-Aug-28 06:33N 47°18' W 002°06'0 0.0
2015-Aug-28 05:32N 47°18' W 002°06'0 0.0
2015-Aug-28 04:14N 47°18' W 002°06'0 0.0
2015-Aug-28 02:19N 47°18' W 002°06'0 0.0
2015-Aug-28 01:24N 47°18' W 002°06'15 0.8
2015-Aug-27 07:23N 47°08' W 002°21'1111.3
2015-Aug-27 06:24N 47°01' W 002°34'2 2.2
2015-Aug-27 05:33N 47°02' W 002°37'2 1.9
2015-Aug-27 04:33N 47°01' W 002°34'12 8.9
2015-Aug-27 03:16N 47°01' W 002°51'1013.9
2015-Aug-27 02:33N 47°03' W 003°05'1413.9
2015-Aug-27 01:33N 47°05' W 003°25'1413.9
2015-Aug-27 00:34N 47°12' W 003°43'1414.2
2015-Aug-26 23:33N 47°19' W 004°01'1414.1
2015-Aug-26 22:32N 47°26' W 004°19'6813.6
2015-Aug-26 17:33N 48°05' W 005°42'26410.9
2015-Aug-25 17:21N 50°30' W 000°03'1011.3
2015-Aug-25 16:26N 50°33' E 000°12'1011.1
2015-Aug-25 15:33N 50°36' E 000°27'1111.4
2015-Aug-25 14:33N 50°41' E 000°43'1312.6
2015-Aug-25 13:33N 50°49' E 000°58'1313.2
2015-Aug-25 12:33N 50°57' E 001°14'1313.1
2015-Aug-25 11:33N 51°06' E 001°30'1212.3
2015-Aug-25 10:33N 51°14' E 001°45'1212.2
2015-Aug-25 09:33N 51°24' E 001°57'1111.3
2015-Aug-25 08:33N 51°21' E 002°14'1211.8
2015-Aug-25 07:33N 51°23' E 002°33'1111.3
2015-Aug-25 06:33N 51°22' E 002°51'1212.0
2015-Aug-25 05:33N 51°24' E 003°10'1312.6
2015-Aug-25 04:33N 51°25' E 003°30'9 8.3
2015-Aug-25 03:32N 51°25' E 003°44'0 0.0
2015-Aug-25 02:31N 51°25' E 003°44'0 0.0
2015-Aug-25 01:31N 51°25' E 003°44'0 0.0
2015-Aug-25 00:33N 51°25' E 003°44'0 0.0
2015-Aug-24 23:33N 51°25' E 003°44'0 0.0
2015-Aug-24 22:29N 51°25' E 003°44'0 0.0
2015-Aug-24 21:29N 51°25' E 003°44'0 0.0
2015-Aug-24 20:32N 51°25' E 003°44'0 0.0
2015-Aug-24 19:31N 51°25' E 003°44'0 0.0
2015-Aug-24 18:31N 51°25' E 003°44'0 0.0
2015-Aug-24 17:33N 51°25' E 003°44'0 0.0
2015-Aug-24 16:33N 51°25' E 003°44'0 0.0
2015-Aug-24 15:33N 51°25' E 003°44'0 0.0
2015-Aug-24 14:32N 51°25' E 003°44'0 0.0
2015-Aug-24 13:32N 51°25' E 003°44'0 0.0
2015-Aug-24 12:31N 51°25' E 003°44'0 0.0
2015-Aug-24 11:31N 51°25' E 003°44'0 0.0
2015-Aug-24 10:33N 51°25' E 003°44'0 0.0
2015-Aug-24 09:33N 51°25' E 003°44'0 0.0
2015-Aug-24 08:29N 51°25' E 003°44'0 0.0
2015-Aug-24 07:32N 51°25' E 003°44'0 0.0
2015-Aug-24 06:32N 51°25' E 003°44'0 0.0
2015-Aug-24 05:31N 51°25' E 003°44'0 0.0
2015-Aug-24 04:28N 51°25' E 003°44'0 0.0
2015-Aug-24 03:33N 51°25' E 003°44'0 0.0
2015-Aug-24 02:33N 51°25' E 003°44'0 0.0
2015-Aug-24 01:32N 51°25' E 003°44'0 0.0
2015-Aug-24 00:32N 51°25' E 003°44'0 0.0
2015-Aug-23 23:32N 51°25' E 003°44'0 0.0
2015-Aug-23 22:31N 51°25' E 003°44'0 0.0
2015-Aug-23 21:31N 51°25' E 003°44'0 0.0
2015-Aug-23 20:33N 51°25' E 003°44'0 0.0
2015-Aug-23 19:33N 51°25' E 003°44'0 0.0
2015-Aug-23 18:32N 51°25' E 003°44'0 0.0
2015-Aug-23 17:32N 51°25' E 003°44'0 0.0
2015-Aug-23 16:28N 51°25' E 003°44'0 0.0
2015-Aug-23 15:31N 51°25' E 003°44'0 0.0
2015-Aug-23 14:31N 51°25' E 003°44'0 0.0
2015-Aug-23 13:33N 51°25' E 003°44'0 0.0
2015-Aug-23 12:33N 51°25' E 003°44'0 0.0
2015-Aug-23 11:32N 51°25' E 003°44'0 0.0
2015-Aug-23 10:32N 51°25' E 003°44'0 0.0
2015-Aug-23 09:32N 51°25' E 003°44'0 0.0
2015-Aug-23 08:31N 51°25' E 003°44'0 0.0
2015-Aug-23 07:31N 51°25' E 003°44'0 0.0
2015-Aug-23 06:33N 51°25' E 003°44'0 0.0
2015-Aug-23 05:33N 51°25' E 003°44'0 0.0
2015-Aug-23 04:29N 51°25' E 003°44'0 0.0
2015-Aug-23 03:32N 51°25' E 003°44'0 0.0
2015-Aug-23 02:28N 51°25' E 003°44'0 0.0
2015-Aug-23 01:28N 51°25' E 003°44'0 0.0
2015-Aug-23 00:31N 51°25' E 003°44'0 0.0
2015-Aug-22 23:33N 51°25' E 003°44'0 0.0
2015-Aug-22 22:33N 51°25' E 003°44'0 0.0
2015-Aug-22 21:32N 51°25' E 003°44'0 0.0
2015-Aug-22 20:32N 51°25' E 003°44'0 0.0
2015-Aug-22 19:31N 51°25' E 003°44'0 0.0
2015-Aug-22 18:31N 51°25' E 003°44'0 0.0
2015-Aug-22 17:31N 51°25' E 003°44'0 0.0
2015-Aug-22 16:30N 51°25' E 003°44'0 0.0
2015-Aug-22 15:30N 51°25' E 003°44'0 0.0
2015-Aug-22 14:29N 51°25' E 003°44'0 0.0
2015-Aug-22 13:32N 51°25' E 003°44'0 0.1
2015-Aug-22 12:33N 51°25' E 003°44'7 7.1
2015-Aug-22 11:33N 51°25' E 003°32'1111.1
2015-Aug-22 10:33N 51°25' E 003°15'1111.4
2015-Aug-22 09:33N 51°25' E 002°56'1110.7
2015-Aug-22 08:33N 51°22' E 002°40'4 4.0
2015-Aug-22 07:32N 51°26' E 002°38'0 0.0
2015-Aug-22 06:31N 51°26' E 002°38'0 0.0
2015-Aug-22 05:31N 51°26' E 002°38'0 0.0
2015-Aug-22 04:33N 51°26' E 002°38'0 0.0
2015-Aug-22 03:30N 51°26' E 002°38'0 0.1
2015-Aug-22 02:32N 51°26' E 002°38'0 0.0
2015-Aug-22 01:32N 51°26' E 002°38'0 0.0
2015-Aug-22 00:31N 51°26' E 002°38'0 0.0
2015-Aug-21 23:31N 51°26' E 002°38'0 0.0
2015-Aug-21 22:31N 51°26' E 002°38'0 0.1
2015-Aug-21 21:33N 51°26' E 002°38'0 0.1
2015-Aug-21 20:33N 51°26' E 002°38'0 0.1
2015-Aug-21 19:32N 51°26' E 002°38'0 0.0
2015-Aug-21 18:32N 51°26' E 002°38'0 0.0
2015-Aug-21 17:28N 51°26' E 002°38'0 0.0
2015-Aug-21 16:31N 51°26' E 002°38'0 0.0
2015-Aug-21 15:31N 51°26' E 002°38'0 0.2
2015-Aug-21 14:33N 51°26' E 002°38'0 0.1
2015-Aug-21 13:24N 51°26' E 002°38'0 0.0
2015-Aug-21 12:26N 51°26' E 002°38'0 0.0
2015-Aug-21 11:32N 51°26' E 002°38'0 0.0
2015-Aug-21 10:28N 51°26' E 002°38'0 0.1
2015-Aug-21 09:31N 51°26' E 002°38'0 0.1
2015-Aug-21 08:31N 51°27' E 002°38'0 0.1
2015-Aug-21 07:33N 51°27' E 002°38'0 0.0
2015-Aug-21 06:33N 51°26' E 002°38'0 0.0
2015-Aug-21 05:32N 51°26' E 002°38'0 0.0
2015-Aug-21 04:32N 51°26' E 002°38'0 0.0
2015-Aug-21 03:22N 51°26' E 002°38'0 0.0
2015-Aug-21 02:31N 51°26' E 002°38'0 0.2
2015-Aug-21 01:34N 51°26' E 002°38'0 0.0
2015-Aug-21 00:34N 51°26' E 002°38'0 0.0
2015-Aug-20 23:33N 51°26' E 002°38'0 0.0
2015-Aug-20 22:33N 51°26' E 002°38'0 0.2
2015-Aug-20 21:33N 51°26' E 002°38'0 0.1
2015-Aug-20 20:33N 51°27' E 002°38'0 0.3
2015-Aug-20 19:30N 51°26' E 002°38'7 7.0
2015-Aug-20 18:33N 51°22' E 002°46'1212.0
2015-Aug-20 17:33N 51°24' E 003°06'1212.1
2015-Aug-20 16:33N 51°25' E 003°25'1010.1
2015-Aug-20 15:34N 51°26' E 003°41'9 9.4
2015-Aug-20 14:33N 51°21' E 003°54'6 5.7
2015-Aug-20 13:34N 51°23' E 004°03'9 8.6
2015-Aug-20 12:33N 51°21' E 004°16'1 0.6
2015-Aug-20 11:33N 51°21' E 004°17'0 0.0
2015-Aug-20 10:34N 51°21' E 004°17'4 4.2
2015-Aug-20 09:34N 51°17' E 004°20'1 1.0
2015-Aug-20 08:33N 51°16' E 004°21'0 0.0
2015-Aug-20 07:32N 51°16' E 004°21'0 0.0
2015-Aug-20 06:29N 51°16' E 004°21'0 0.0
2015-Aug-20 05:31N 51°16' E 004°21'0 0.0
2015-Aug-20 04:31N 51°16' E 004°21'0 0.0
2015-Aug-20 03:33N 51°16' E 004°21'0 0.0
2015-Aug-20 02:33N 51°16' E 004°21'0 0.0
2015-Aug-20 01:33N 51°16' E 004°21'0 0.0
2015-Aug-20 00:32N 51°16' E 004°21'0 0.0
2015-Aug-19 23:32N 51°16' E 004°21'0 0.0
2015-Aug-19 22:31N 51°16' E 004°21'  
Track history (hours):
 
Tides and Currents Weather Stations Pressure Air Temp Water Temp Dewpoint Dewpoint Depression Visibility Wind Speed Wind Dir Waves Ship Positions

Baltic Frost

Last reported at 2015-Aug-29 22:20 UTC. Time now 2015-Aug-29 23:33 UTC.
Position N 47°18' W 002°06'.

Length 182 m; draft 7.2 m.

Type: Ship. MMSI: 256495000.

Date/timePositionNaut miles runAvg speedWind from/ knotsBaromVisibWave heightAir tempDewpointWater temp
2015-Aug-29 22:20N 47°18' W 002°06'0 0.0
2015-Aug-29 21:16N 47°18' W 002°06'0 0.0
2015-Aug-29 20:22N 47°18' W 002°06'0 0.0
2015-Aug-29 11:24N 47°18' W 002°06'0 0.0
2015-Aug-29 10:12N 47°18' W 002°06'0 0.0
2015-Aug-29 09:29N 47°18' W 002°06'0 0.0
2015-Aug-29 08:32N 47°18' W 002°06'0 0.0
2015-Aug-29 07:28N 47°18' W 002°06'0 0.0
2015-Aug-29 06:25N 47°18' W 002°06'0 0.0
2015-Aug-29 05:21N 47°18' W 002°06'0 0.0
2015-Aug-29 04:15N 47°18' W 002°06'0 0.0
2015-Aug-29 03:33N 47°18' W 002°06'0 0.0
2015-Aug-29 02:26N 47°18' W 002°06'0 0.0
2015-Aug-29 00:31N 47°18' W 002°06'0 0.0
2015-Aug-28 23:22N 47°18' W 002°06'0 0.0
2015-Aug-28 22:27N 47°18' W 002°06'0 0.0
2015-Aug-28 21:33N 47°18' W 002°06'0 0.0
2015-Aug-28 20:18N 47°18' W 002°06'0 0.0
2015-Aug-28 19:32N 47°18' W 002°06'0 0.0
2015-Aug-28 18:32N 47°18' W 002°06'0 0.0
2015-Aug-28 12:29N 47°18' W 002°06'0 0.0
2015-Aug-28 10:13N 47°18' W 002°06'0 0.0
2015-Aug-28 09:28N 47°18' W 002°06'0 0.0
2015-Aug-28 08:33N 47°18' W 002°06'0 0.0
2015-Aug-28 07:33N 47°18' W 002°06'0 0.0
2015-Aug-28 06:33N 47°18' W 002°06'0 0.0
2015-Aug-28 05:32N 47°18' W 002°06'0 0.0
2015-Aug-28 04:14N 47°18' W 002°06'0 0.0
2015-Aug-28 02:19N 47°18' W 002°06'0 0.0
2015-Aug-28 01:24N 47°18' W 002°06'15 0.8
2015-Aug-27 07:23N 47°08' W 002°21'1111.3
2015-Aug-27 06:24N 47°01' W 002°34'2 2.2
2015-Aug-27 05:33N 47°02' W 002°37'2 1.9
2015-Aug-27 04:33N 47°01' W 002°34'12 8.9
2015-Aug-27 03:16N 47°01' W 002°51'1013.9
2015-Aug-27 02:33N 47°03' W 003°05'1413.9
2015-Aug-27 01:33N 47°05' W 003°25'1413.9
2015-Aug-27 00:34N 47°12' W 003°43'1414.2
2015-Aug-26 23:33N 47°19' W 004°01'1414.1
2015-Aug-26 22:32N 47°26' W 004°19'6813.6
2015-Aug-26 17:33N 48°05' W 005°42'26410.9
2015-Aug-25 17:21N 50°30' W 000°03'1011.3
2015-Aug-25 16:26N 50°33' E 000°12'1011.1
2015-Aug-25 15:33N 50°36' E 000°27'1111.4
2015-Aug-25 14:33N 50°41' E 000°43'1312.6
2015-Aug-25 13:33N 50°49' E 000°58'1313.2
2015-Aug-25 12:33N 50°57' E 001°14'1313.1
2015-Aug-25 11:33N 51°06' E 001°30'1212.3
2015-Aug-25 10:33N 51°14' E 001°45'1212.2
2015-Aug-25 09:33N 51°24' E 001°57'1111.3
2015-Aug-25 08:33N 51°21' E 002°14'1211.8
2015-Aug-25 07:33N 51°23' E 002°33'1111.3
2015-Aug-25 06:33N 51°22' E 002°51'1212.0
2015-Aug-25 05:33N 51°24' E 003°10'1312.6
2015-Aug-25 04:33N 51°25' E 003°30'9 8.3
2015-Aug-25 03:32N 51°25' E 003°44'0 0.0
2015-Aug-25 02:31N 51°25' E 003°44'0 0.0
2015-Aug-25 01:31N 51°25' E 003°44'0 0.0
2015-Aug-25 00:33N 51°25' E 003°44'0 0.0
2015-Aug-24 23:33N 51°25' E 003°44'0 0.0
2015-Aug-24 22:29N 51°25' E 003°44'0 0.0
2015-Aug-24 21:29N 51°25' E 003°44'0 0.0
2015-Aug-24 20:32N 51°25' E 003°44'0 0.0
2015-Aug-24 19:31N 51°25' E 003°44'0 0.0
2015-Aug-24 18:31N 51°25' E 003°44'0 0.0
2015-Aug-24 17:33N 51°25' E 003°44'0 0.0
2015-Aug-24 16:33N 51°25' E 003°44'0 0.0
2015-Aug-24 15:33N 51°25' E 003°44'0 0.0
2015-Aug-24 14:32N 51°25' E 003°44'0 0.0
2015-Aug-24 13:32N 51°25' E 003°44'0 0.0
2015-Aug-24 12:31N 51°25' E 003°44'0 0.0
2015-Aug-24 11:31N 51°25' E 003°44'0 0.0
2015-Aug-24 10:33N 51°25' E 003°44'0 0.0
2015-Aug-24 09:33N 51°25' E 003°44'0 0.0
2015-Aug-24 08:29N 51°25' E 003°44'0 0.0
2015-Aug-24 07:32N 51°25' E 003°44'0 0.0
2015-Aug-24 06:32N 51°25' E 003°44'0 0.0
2015-Aug-24 05:31N 51°25' E 003°44'0 0.0
2015-Aug-24 04:28N 51°25' E 003°44'0 0.0
2015-Aug-24 03:33N 51°25' E 003°44'0 0.0
2015-Aug-24 02:33N 51°25' E 003°44'0 0.0
2015-Aug-24 01:32N 51°25' E 003°44'0 0.0
2015-Aug-24 00:32N 51°25' E 003°44'0 0.0
2015-Aug-23 23:32N 51°25' E 003°44'0 0.0
2015-Aug-23 22:31N 51°25' E 003°44'0 0.0
2015-Aug-23 21:31N 51°25' E 003°44'0 0.0
2015-Aug-23 20:33N 51°25' E 003°44'0 0.0
2015-Aug-23 19:33N 51°25' E 003°44'0 0.0
2015-Aug-23 18:32N 51°25' E 003°44'0 0.0
2015-Aug-23 17:32N 51°25' E 003°44'0 0.0
2015-Aug-23 16:28N 51°25' E 003°44'0 0.0
2015-Aug-23 15:31N 51°25' E 003°44'0 0.0
2015-Aug-23 14:31N 51°25' E 003°44'0 0.0
2015-Aug-23 13:33N 51°25' E 003°44'0 0.0
2015-Aug-23 12:33N 51°25' E 003°44'0 0.0
2015-Aug-23 11:32N 51°25' E 003°44'0 0.0
2015-Aug-23 10:32N 51°25' E 003°44'0 0.0
2015-Aug-23 09:32N 51°25' E 003°44'0 0.0
2015-Aug-23 08:31N 51°25' E 003°44'0 0.0
2015-Aug-23 07:31N 51°25' E 003°44'0 0.0
2015-Aug-23 06:33N 51°25' E 003°44'0 0.0
2015-Aug-23 05:33N 51°25' E 003°44'0 0.0
2015-Aug-23 04:29N 51°25' E 003°44'0 0.0
2015-Aug-23 03:32N 51°25' E 003°44'0 0.0
2015-Aug-23 02:28N 51°25' E 003°44'0 0.0
2015-Aug-23 01:28N 51°25' E 003°44'0 0.0
2015-Aug-23 00:31N 51°25' E 003°44'0 0.0
2015-Aug-22 23:33N 51°25' E 003°44'0 0.0
2015-Aug-22 22:33N 51°25' E 003°44'0 0.0
2015-Aug-22 21:32N 51°25' E 003°44'0 0.0
2015-Aug-22 20:32N 51°25' E 003°44'0 0.0
2015-Aug-22 19:31N 51°25' E 003°44'0 0.0
2015-Aug-22 18:31N 51°25' E 003°44'0 0.0
2015-Aug-22 17:31N 51°25' E 003°44'0 0.0
2015-Aug-22 16:30N 51°25' E 003°44'0 0.0
2015-Aug-22 15:30N 51°25' E 003°44'0 0.0
2015-Aug-22 14:29N 51°25' E 003°44'0 0.0
2015-Aug-22 13:32N 51°25' E 003°44'0 0.1
2015-Aug-22 12:33N 51°25' E 003°44'7 7.1
2015-Aug-22 11:33N 51°25' E 003°32'1111.1
2015-Aug-22 10:33N 51°25' E 003°15'1111.4
2015-Aug-22 09:33N 51°25' E 002°56'1110.7
2015-Aug-22 08:33N 51°22' E 002°40'4 4.0
2015-Aug-22 07:32N 51°26' E 002°38'0 0.0
2015-Aug-22 06:31N 51°26' E 002°38'0 0.0
2015-Aug-22 05:31N 51°26' E 002°38'0 0.0
2015-Aug-22 04:33N 51°26' E 002°38'0 0.0
2015-Aug-22 03:30N 51°26' E 002°38'0 0.1
2015-Aug-22 02:32N 51°26' E 002°38'0 0.0
2015-Aug-22 01:32N 51°26' E 002°38'0 0.0
2015-Aug-22 00:31N 51°26' E 002°38'0 0.0
2015-Aug-21 23:31N 51°26' E 002°38'0 0.0
2015-Aug-21 22:31N 51°26' E 002°38'0 0.1
2015-Aug-21 21:33N 51°26' E 002°38'0 0.1
2015-Aug-21 20:33N 51°26' E 002°38'0 0.1
2015-Aug-21 19:32N 51°26' E 002°38'0 0.0
2015-Aug-21 18:32N 51°26' E 002°38'0 0.0
2015-Aug-21 17:28N 51°26' E 002°38'0 0.0
2015-Aug-21 16:31N 51°26' E 002°38'0 0.0
2015-Aug-21 15:31N 51°26' E 002°38'0 0.2
2015-Aug-21 14:33N 51°26' E 002°38'0 0.1
2015-Aug-21 13:24N 51°26' E 002°38'0 0.0
2015-Aug-21 12:26N 51°26' E 002°38'0 0.0
2015-Aug-21 11:32N 51°26' E 002°38'0 0.0
2015-Aug-21 10:28N 51°26' E 002°38'0 0.1
2015-Aug-21 09:31N 51°26' E 002°38'0 0.1
2015-Aug-21 08:31N 51°27' E 002°38'0 0.1
2015-Aug-21 07:33N 51°27' E 002°38'0 0.0
2015-Aug-21 06:33N 51°26' E 002°38'0 0.0
2015-Aug-21 05:32N 51°26' E 002°38'0 0.0
2015-Aug-21 04:32N 51°26' E 002°38'0 0.0
2015-Aug-21 03:22N 51°26' E 002°38'0 0.0
2015-Aug-21 02:31N 51°26' E 002°38'0 0.2
2015-Aug-21 01:34N 51°26' E 002°38'0 0.0
2015-Aug-21 00:34N 51°26' E 002°38'0 0.0
2015-Aug-20 23:33N 51°26' E 002°38'0 0.0
2015-Aug-20 22:33N 51°26' E 002°38'0 0.2
2015-Aug-20 21:33N 51°26' E 002°38'0 0.1
2015-Aug-20 20:33N 51°27' E 002°38'0 0.3
2015-Aug-20 19:30N 51°26' E 002°38'7 7.0
2015-Aug-20 18:33N 51°22' E 002°46'1212.0
2015-Aug-20 17:33N 51°24' E 003°06'1212.1
2015-Aug-20 16:33N 51°25' E 003°25'1010.1
2015-Aug-20 15:34N 51°26' E 003°41'9 9.4
2015-Aug-20 14:33N 51°21' E 003°54'6 5.7
2015-Aug-20 13:34N 51°23' E 004°03'9 8.6
2015-Aug-20 12:33N 51°21' E 004°16'1 0.6
2015-Aug-20 11:33N 51°21' E 004°17'0 0.0
2015-Aug-20 10:34N 51°21' E 004°17'4 4.2
2015-Aug-20 09:34N 51°17' E 004°20'1 1.0
2015-Aug-20 08:33N 51°16' E 004°21'0 0.0
2015-Aug-20 07:32N 51°16' E 004°21'0 0.0
2015-Aug-20 06:29N 51°16' E 004°21'0 0.0
2015-Aug-20 05:31N 51°16' E 004°21'0 0.0
2015-Aug-20 04:31N 51°16' E 004°21'0 0.0
2015-Aug-20 03:33N 51°16' E 004°21'0 0.0
2015-Aug-20 02:33N 51°16' E 004°21'0 0.0
2015-Aug-20 01:33N 51°16' E 004°21'0 0.0
2015-Aug-20 00:32N 51°16' E 004°21'0 0.0
2015-Aug-19 23:32N 51°16' E 004°21'0 0.0
2015-Aug-19 22:31N 51°16' E 004°21'  

Dump ship's entire track history